Latest Coastal Weather Observations for Redcliffe

IDQ60701

Issued at 8:02 am EST Wednesday 19 December 2018 (issued every 10 minutes, with the page automatically refreshed every 10 minutes)

About coastal observations | Map of coastal stations | Coastal observations for QLD | Marine services | Other Formats
Station Details ID: 040958 Name: REDCLIFFE Lat: -27.22 Lon: 153.09 Height: 12.6 m
Data from the previous 72 hours. | See also: Recent months at Redcliffe
Date/Time
EST
Wind Sea
Height
m
Swell Vis
km
Cloud Weather Temp
°C
Press
hPa
Rain since
9am
mm
Dir  Spd
kts
Gust
kts
Height
m
Period
s
Dir
19/08:00am E 6 7 - - - - - - - 26.2 1014.0 -
19/07:30am ENE 6 7 - - - - - - - 26.4 1013.8 -
19/07:00am E 7 8 - - - - - - - 25.4 1013.5 -
19/06:30am E 7 8 - - - - - - - 25.4 1013.2 -
19/06:00am E 7 8 - - - - - - - 24.4 1012.8 -
19/05:30am E 7 8 - - - - - - - 24.2 1012.6 -
19/05:00am ESE 8 10 - - - - - - - 24.2 1012.2 -
19/04:30am ESE 8 9 - - - - - - - 23.9 1011.9 -
19/04:00am SE 8 9 - - - - - - - - - -
19/03:30am ESE 8 10 - - - - - - - - - -
19/03:00am ESE 7 9 - - - - - - - - - -
19/02:30am ESE 8 9 - - - - - - - - - -
19/02:00am E 7 8 - - - - - - - - - -
19/01:30am E 8 10 - - - - - - - - - -
19/01:00am E 9 10 - - - - - - - 24.1 1012.1 0.0
19/12:30am E 8 9 - - - - - - - 24.3 1012.6 0.0
19/12:00am E 9 11 - - - - - - - 24.1 1013.0 0.0
 
Date/Time
EST
Wind Sea
Height
m
Swell Vis
km
Cloud Weather Temp
°C
Press
hPa
Rain since
9am
mm
Dir  Spd
kts
Gust
kts
Height
m
Period
s
Dir
18/11:30pm E 9 10 - - - - - - - 24.3 1013.4 0.0
18/11:00pm E 8 10 - - - - - - - 24.3 1013.6 0.0
18/10:30pm ESE 10 12 - - - - - - - 24.3 1013.8 0.0
18/10:00pm E 10 12 - - - - - - - 24.3 1013.7 0.0
18/09:30pm E 9 12 - - - - - - - 24.3 1013.7 0.0
18/09:00pm E 10 13 - - - - - - - 24.2 1013.3 0.0
18/08:30pm E 11 14 - - - - - - - 24.3 1013.3 0.0
18/08:00pm E 12 14 - - - - - - - 24.4 1013.0 0.0
18/07:30pm E 11 14 - - - - - - - 24.2 1012.9 0.0
18/07:00pm ESE 13 15 - - - - - - - 24.5 1012.5 0.0
18/06:30pm E 14 16 - - - - - - - 24.7 1012.2 0.0
18/06:00pm E 13 15 - - - - - - - 25.1 1012.0 0.0
18/05:30pm ESE 13 15 - - - - - - - 25.7 1011.8 0.0
18/05:00pm ESE 14 16 - - - - - - - 25.5 1011.5 0.0
18/04:30pm ESE 13 15 - - - - - - - 25.7 1011.4 0.0
18/04:00pm ESE 13 15 - - - - - - - 25.7 1011.1 0.0
18/03:30pm E 12 14 - - - - - - - 26.2 1011.1 0.0
18/03:00pm ESE 13 15 - - - - - - - 26.1 1011.0 0.0
18/02:30pm ESE 13 15 - - - - - - - 26.1 1011.2 0.0
18/02:00pm ESE 15 17 - - - - - - - 26.4 1011.4 0.0
18/01:30pm ESE 13 16 - - - - - - - 27.1 1011.6 0.0
18/01:00pm ESE 14 16 - - - - - - - 26.2 1011.7 0.0
18/12:30pm ESE 14 17 - - - - - - - 26.5 1011.7 0.0
18/12:00pm ESE 13 16 - - - - - - - 26.3 1011.8 0.0
18/11:30am ESE 14 16 - - - - - - - 26.6 1011.9 0.0
18/11:00am ESE 13 15 - - - - - - - 26.0 1012.1 0.0
18/10:30am ESE 14 16 - - - - - - - 26.3 1012.1 0.0
18/10:00am ESE 14 17 - - - - - - - 26.1 1012.3 0.0
18/09:30am SE 12 15 - - - - - - - 25.8 1012.5 0.0
18/09:00am ESE 13 16 - - - - - - - 25.8 1012.5 17.6
18/08:30am ESE 13 15 - - - - - - - 24.6 1012.3 17.6
18/08:00am SE 13 15 - - - - - - - 25.4 1012.2 17.6
18/07:30am ESE 13 15 - - - - - - - 23.7 1012.1 17.6
18/07:00am E 12 14 - - - - - - - 22.5 1012.0 16.4
18/06:30am ESE 14 15 - - - - - - - 24.4 1011.8 15.4
18/06:00am ESE 14 16 - - - - - - Recent precip. 24.4 1011.4 15.4
18/05:30am E 12 15 - - - - - - - 23.5 1011.0 15.4
18/05:00am ESE 13 15 - - - - - - - 23.3 1010.6 15.2
18/04:30am ESE 14 17 - - - - - - - 23.6 1010.2 15.2
18/04:00am ESE 13 15 - - - - - - - 23.4 1010.0 15.2
18/03:30am E 9 10 - - - - - - - 22.9 1009.6 15.2
18/03:00am ENE 14 16 - - - - - - - 23.0 1009.6 15.2
18/02:30am E 13 16 - - - - - - - 23.1 1009.6 15.2
18/02:00am E 11 14 - - - - - - - 23.1 1009.6 15.2
18/01:30am E 13 15 - - - - - - - 22.9 1009.8 15.2
18/01:00am E 14 15 - - - - - - - 23.1 1009.9 15.2
18/12:30am ESE 15 18 - - - - - - - 23.4 1010.4 15.2
18/12:00am ESE 12 15 - - - - - - - 23.3 1010.9 15.2
 
Date/Time
EST
Wind Sea
Height
m
Swell Vis
km
Cloud Weather Temp
°C
Press
hPa
Rain since
9am
mm
Dir  Spd
kts
Gust
kts
Height
m
Period
s
Dir
17/11:30pm ESE 13 17 - - - - - - - 23.6 1011.2 15.2
17/11:00pm ESE 14 16 - - - - - - - 23.6 1011.6 15.2
17/10:30pm E 14 18 - - - - - - - 23.4 1011.6 15.2
17/10:00pm E 15 19 - - - - - - - 23.0 1011.7 15.2
17/09:30pm E 15 19 - - - - - - - 23.1 1011.7 15.2
17/09:00pm E 17 21 - - - - - - - 23.8 1011.6 15.2
17/08:30pm E 16 18 - - - - - - - 23.5 1011.4 15.2
17/08:00pm E 17 20 - - - - - - - 23.2 1011.4 15.2
17/07:30pm ESE 16 18 - - - - - - - 23.9 1011.2 15.0
17/07:00pm ESE 17 19 - - - - - - - 23.8 1010.8 15.0
17/06:30pm ESE 15 18 - - - - - - - 24.1 1010.5 15.0
17/06:00pm E 15 19 - - - - - - - 24.7 1010.2 15.0
17/05:30pm E 10 14 - - - - - - - 23.9 1010.0 15.0
17/05:00pm E 9 10 - - - - - - - 24.8 1009.6 15.0
17/04:30pm E 13 15 - - - - - - - 24.4 1009.5 15.0
17/04:00pm E 13 16 - - - - - - - 24.9 1009.2 15.0
17/03:30pm ENE 13 16 - - - - - - - 25.1 1009.2 15.0
17/03:00pm E 14 16 - - - - - - - 26.2 1009.1 15.0
17/02:30pm E 15 17 - - - - - - - 25.6 1009.2 15.0
17/02:00pm E 13 16 - - - - - - - 25.9 1009.1 15.0
17/01:30pm E 14 16 - - - - - - - 25.7 1009.4 14.8
17/01:00pm E 13 15 - - - - - - - 26.0 1009.6 14.8
17/12:30pm NE 1 4 - - - - - - - 24.3 1009.8 14.8
17/12:00pm NNE 9 13 - - - - - - Rain 22.2 1010.1 14.4
17/11:30am NNE 8 13 - - - - - - - 22.9 1010.3 9.2
17/11:00am NE 11 15 - - - - - - - 25.1 1010.3 0.0
17/10:30am E 7 9 - - - - - - - 25.9 1010.4 0.0
17/10:00am E 9 11 - - - - - - - 25.7 1010.6 0.0
17/09:30am E 13 15 - - - - - - - 25.2 1010.7 0.0
17/09:00am ENE 11 14 - - - - - - - 25.3 1010.9 5.4
17/08:30am ENE 11 14 - - - - - - - 25.0 1011.0 5.4
17/08:00am ENE 11 14 - - - - - - - 25.0 1010.8 5.4
17/07:30am ENE 9 11 - - - - - - - 24.9 1010.7 5.4
17/07:00am E 9 11 - - - - - - - 24.0 1010.6 5.4
17/06:30am ENE 10 14 - - - - - - - 23.4 1010.1 5.4
17/06:00am NE 12 14 - - - - - - Recent precip. 23.0 1009.9 5.4
17/05:30am NNE 16 19 - - - - - - - 22.1 1009.7 5.4
17/05:00am NNE 12 16 - - - - - - - 23.1 1009.4 5.0
17/04:30am NE 10 13 - - - - - - - 23.4 1008.9 5.0
17/04:00am NE 15 17 - - - - - - - 22.4 1008.7 5.0
17/03:30am ENE 11 14 - - - - - - - 23.3 1008.7 4.8
17/03:00am E 12 15 - - - - - - Recent precip. 22.2 1008.7 4.8
17/02:30am E 17 20 - - - - - - - 21.4 1008.9 4.8
17/02:00am ENE 17 19 - - - - - - - 22.2 1009.0 4.6
17/01:30am ENE 17 18 - - - - - - - 22.8 1009.2 4.2
17/01:00am ENE 16 19 - - - - - - - 23.0 1009.3 4.2
17/12:30am NE 17 20 - - - - - - - 23.6 1009.4 4.2
17/12:00am NE 15 19 - - - - - - - 23.5 1009.8 4.0
 
Date/Time
EST
Wind Sea
Height
m
Swell Vis
km
Cloud Weather Temp
°C
Press
hPa
Rain since
9am
mm
Dir  Spd
kts
Gust
kts
Height
m
Period
s
Dir
16/11:30pm NE 16 18 - - - - - - - 24.0 1010.0 4.0
16/11:00pm NE 16 19 - - - - - - - 23.9 1010.1 4.0
16/10:30pm NE 16 18 - - - - - - - 23.8 1010.4 4.0
16/10:00pm NE 19 23 - - - - - - - 23.2 1010.4 3.8
16/09:30pm NE 19 22 - - - - - - - 23.2 1010.4 3.8
16/09:00pm ENE 17 19 - - - - - - Recent precip. 23.6 1010.1 3.6
16/08:30pm NE 18 21 - - - - - - - 23.4 1010.3 3.6
16/08:00pm NE 20 24 - - - - - - - 23.5 1009.8 3.2
16/07:30pm NE 20 23 - - - - - - - 23.5 1009.7 2.8
16/07:00pm NE 18 20 - - - - - - - 23.7 1009.8 2.2
16/06:30pm NE 18 22 - - - - - - - 23.9 1009.2 1.8
16/06:00pm ENE 16 19 - - - - - - Rain 24.1 1009.2 1.4
16/05:30pm ENE 19 22 - - - - - - - 24.2 1008.7 1.0
16/05:00pm ENE 18 21 - - - - - - - 24.1 1008.5 1.0
16/04:30pm ENE 17 21 - - - - - - - 24.3 1008.0 1.0
16/04:00pm NE 16 20 - - - - - - - 24.8 1008.3 0.6
16/03:30pm NE 17 19 - - - - - - - 24.9 1007.7 0.6
16/03:00pm NE 17 20 - - - - - - - 24.8 1008.5 0.4
16/02:30pm NE 20 25 - - - - - - - 24.9 1008.1 0.4
16/02:00pm NE 19 22 - - - - - - - 25.0 1008.9 0.4
16/01:30pm NE 19 23 - - - - - - - 25.0 1009.1 0.4
16/01:00pm NE 17 21 - - - - - - - 25.1 1009.4 0.4
16/12:30pm ENE 17 20 - - - - - - - 24.8 1009.5 0.4
16/12:00pm ENE 18 21 - - - - - - Rain 24.6 1009.3 0.4
16/11:30am NE 18 21 - - - - - - - 24.5 1010.3 0.2
16/11:00am NE 18 21 - - - - - - - 24.6 1010.7 0.0
16/10:30am NE 17 20 - - - - - - - 24.6 1010.9 0.0
16/10:00am NE 18 20 - - - - - - - 25.0 1011.0 0.0
16/09:30am NE 18 21 - - - - - - - 24.8 1011.1 0.0
16/09:00am ENE 14 17 - - - - - - - 24.8 1010.9 5.2
16/08:30am ENE 17 20 - - - - - - - 24.8 1010.7 5.2

Other Formats:

Comma delimited format used in spreadsheet applications
http://www.bom.gov.au/fwo/IDQ60701/IDQ60701.95591.axf

JavaScript Object Notation format (JSON) in row-major order
http://www.bom.gov.au/fwo/IDQ60701/IDQ60701.95591.json